sensor_id;sensor_type;location;lat;lon;timestamp;pressure;altitude;pressure_sealevel;temperature;humidity
46476;BME280;53376;51.114;14.738;2022-07-23T00:03:00;98493.41;;;28.17;38.79
46476;BME280;53376;51.114;14.738;2022-07-23T00:05:44;98510.19;;;28.14;38.91
46476;BME280;53376;51.114;14.738;2022-07-23T00:08:11;98496.94;;;28.11;39.13
46476;BME280;53376;51.114;14.738;2022-07-23T00:10:52;98497.16;;;28.09;38.82
46476;BME280;53376;51.114;14.738;2022-07-23T00:13:19;98489.16;;;28.08;39.05
46476;BME280;53376;51.114;14.738;2022-07-23T00:16:00;98500.06;;;28.08;39.24
46476;BME280;53376;51.114;14.738;2022-07-23T00:28:43;98512.59;;;27.95;39.69
46476;BME280;53376;51.114;14.738;2022-07-23T00:31:24;98513.84;;;27.93;39.23
46476;BME280;53376;51.114;14.738;2022-07-23T00:34:04;98501.22;;;27.92;39.68
46476;BME280;53376;51.114;14.738;2022-07-23T00:36:31;98500.81;;;27.88;39.83
46476;BME280;53376;51.114;14.738;2022-07-23T00:39:12;98497.00;;;27.82;39.64
46476;BME280;53376;51.114;14.738;2022-07-23T00:41:39;98497.81;;;27.76;39.70
46476;BME280;53376;51.114;14.738;2022-07-23T00:54:52;98488.88;;;27.61;39.93
46476;BME280;53376;51.114;14.738;2022-07-23T00:57:32;98484.88;;;27.57;40.00
46476;BME280;53376;51.114;14.738;2022-07-23T01:00:00;98489.69;;;27.55;40.11
46476;BME280;53376;51.114;14.738;2022-07-23T01:02:40;98491.16;;;27.50;40.07
46476;BME280;53376;51.114;14.738;2022-07-23T01:05:08;98490.50;;;27.48;39.96
46476;BME280;53376;51.114;14.738;2022-07-23T01:07:52;98480.00;;;27.45;40.47
46476;BME280;53376;51.114;14.738;2022-07-23T01:20:52;98460.91;;;27.24;40.26
46476;BME280;53376;51.114;14.738;2022-07-23T01:23:34;98467.81;;;27.19;40.52
46476;BME280;53376;51.114;14.738;2022-07-23T01:26:14;98470.97;;;27.16;40.47
46476;BME280;53376;51.114;14.738;2022-07-23T01:28:42;98470.31;;;27.14;40.74
46476;BME280;53376;51.114;14.738;2022-07-23T01:31:22;98466.31;;;27.10;40.44
46476;BME280;53376;51.114;14.738;2022-07-23T01:34:02;98466.69;;;27.07;40.56
46476;BME280;53376;51.114;14.738;2022-07-23T01:36:43;98466.69;;;27.07;40.49
46476;BME280;53376;51.114;14.738;2022-07-23T01:49:28;98454.25;;;26.98;40.69
46476;BME280;53376;51.114;14.738;2022-07-23T01:52:43;98449.84;;;26.97;40.97
46476;BME280;53376;51.114;14.738;2022-07-23T01:55:24;98447.28;;;26.95;40.89
46476;BME280;53376;51.114;14.738;2022-07-23T01:57:51;98448.53;;;26.93;41.27
46476;BME280;53376;51.114;14.738;2022-07-23T02:00:33;98439.06;;;26.89;41.36
46476;BME280;53376;51.114;14.738;2022-07-23T02:03:00;98440.09;;;26.87;40.89
46476;BME280;53376;51.114;14.738;2022-07-23T02:16:14;98414.81;;;26.72;41.31
46476;BME280;53376;51.114;14.738;2022-07-23T02:19:02;98409.53;;;26.70;41.40
46476;BME280;53376;51.114;14.738;2022-07-23T02:21:37;98404.47;;;26.67;41.36
46476;BME280;53376;51.114;14.738;2022-07-23T02:24:19;98410.13;;;26.66;41.24
46476;BME280;53376;51.114;14.738;2022-07-23T02:26:46;98405.72;;;26.65;41.44
46476;BME280;53376;51.114;14.738;2022-07-23T02:43:22;98408.72;;;26.48;41.67
46476;BME280;53376;51.114;14.738;2022-07-23T02:46:03;98416.25;;;26.46;42.01
46476;BME280;53376;51.114;14.738;2022-07-23T02:48:43;98414.56;;;26.45;42.06
46476;BME280;53376;51.114;14.738;2022-07-23T02:51:10;98416.81;;;26.42;42.15
46476;BME280;53376;51.114;14.738;2022-07-23T02:53:56;98417.84;;;26.41;41.96
46476;BME280;53376;51.114;14.738;2022-07-23T02:56:35;98422.84;;;26.37;42.50
46476;BME280;53376;51.114;14.738;2022-07-23T03:09:47;98404.31;;;26.26;42.68
46476;BME280;53376;51.114;14.738;2022-07-23T03:12:28;98403.03;;;26.21;42.66
46476;BME280;53376;51.114;14.738;2022-07-23T03:14:55;98406.97;;;26.19;42.82
46476;BME280;53376;51.114;14.738;2022-07-23T03:17:38;98401.69;;;26.17;42.82
46476;BME280;53376;51.114;14.738;2022-07-23T03:20:20;98396.66;;;26.14;43.05
46476;BME280;53376;51.114;14.738;2022-07-23T03:23:01;98400.63;;;26.12;42.72
46476;BME280;53376;51.114;14.738;2022-07-23T03:35:47;98379.41;;;26.07;43.23
46476;BME280;53376;51.114;14.738;2022-07-23T03:38:31;98372.28;;;26.06;43.46
46476;BME280;53376;51.114;14.738;2022-07-23T03:41:12;98373.28;;;26.05;43.51
46476;BME280;53376;51.114;14.738;2022-07-23T03:43:39;98367.81;;;26.05;43.05
46476;BME280;53376;51.114;14.738;2022-07-23T03:46:19;98365.97;;;26.05;43.50
46476;BME280;53376;51.114;14.738;2022-07-23T04:02:28;98345.78;;;26.00;43.96
46476;BME280;53376;51.114;14.738;2022-07-23T04:05:11;98353.31;;;25.98;43.64
46476;BME280;53376;51.114;14.738;2022-07-23T04:07:41;98343.25;;;25.98;44.07
46476;BME280;53376;51.114;14.738;2022-07-23T04:10:21;98342.34;;;25.91;44.22
46476;BME280;53376;51.114;14.738;2022-07-23T04:12:48;98332.94;;;25.94;44.46
46476;BME280;53376;51.114;14.738;2022-07-23T04:15:28;98338.41;;;25.94;44.48
46476;BME280;53376;51.114;14.738;2022-07-23T04:17:57;98332.50;;;25.90;44.42
46476;BME280;53376;51.114;14.738;2022-07-23T04:28:07;98315.84;;;25.78;44.70
46476;BME280;53376;51.114;14.738;2022-07-23T04:30:47;98312.47;;;25.76;44.70
46476;BME280;53376;51.114;14.738;2022-07-23T04:33:30;98306.56;;;25.72;44.88
46476;BME280;53376;51.114;14.738;2022-07-23T04:36:07;98302.00;;;25.73;44.92
46476;BME280;53376;51.114;14.738;2022-07-23T04:38:48;98298.19;;;25.74;45.01
46476;BME280;53376;51.114;14.738;2022-07-23T04:41:26;98304.03;;;25.71;44.77
46476;BME280;53376;51.114;14.738;2022-07-23T04:54:52;98282.66;;;25.68;44.91
46476;BME280;53376;51.114;14.738;2022-07-23T04:57:34;98273.47;;;25.69;45.74
46476;BME280;53376;51.114;14.738;2022-07-23T05:00:01;98270.75;;;25.69;45.57
46476;BME280;53376;51.114;14.738;2022-07-23T05:02:42;98273.47;;;25.69;45.51
46476;BME280;53376;51.114;14.738;2022-07-23T05:05:09;98268.00;;;25.69;46.00
46476;BME280;53376;51.114;14.738;2022-07-23T05:07:52;98278.91;;;25.69;45.91
46476;BME280;53376;51.114;14.738;2022-07-23T05:24:01;98278.44;;;25.65;46.38
46476;BME280;53376;51.114;14.738;2022-07-23T05:26:45;98281.00;;;25.67;46.50
46476;BME280;53376;51.114;14.738;2022-07-23T05:29:13;98289.78;;;25.69;46.68
46476;BME280;53376;51.114;14.738;2022-07-23T05:31:53;98299.44;;;25.71;46.39
46476;BME280;53376;51.114;14.738;2022-07-23T05:34:21;98304.72;;;25.73;47.04
46476;BME280;53376;51.114;14.738;2022-07-23T05:37:01;98311.63;;;25.75;47.09
46476;BME280;53376;51.114;14.738;2022-07-23T05:49:44;98335.94;;;25.77;47.60
46476;BME280;53376;51.114;14.738;2022-07-23T05:52:34;98339.47;;;25.78;47.54
46476;BME280;53376;51.114;14.738;2022-07-23T05:55:31;98337.63;;;25.78;47.43
46476;BME280;53376;51.114;14.738;2022-07-23T05:58:05;98328.22;;;25.81;47.64
46476;BME280;53376;51.114;14.738;2022-07-23T06:00:45;98339.31;;;25.79;47.72
46476;BME280;53376;51.114;14.738;2022-07-23T06:03:13;98339.31;;;25.79;47.28
46476;BME280;53376;51.114;14.738;2022-07-23T06:16:32;98350.19;;;25.79;48.13
46476;BME280;53376;51.114;14.738;2022-07-23T06:19:12;98350.19;;;25.79;47.82
46476;BME280;53376;51.114;14.738;2022-07-23T06:21:40;98354.97;;;25.77;47.96
46476;BME280;53376;51.114;14.738;2022-07-23T06:24:21;98348.25;;;25.73;47.62
46476;BME280;53376;51.114;14.738;2022-07-23T06:26:49;98343.84;;;25.72;47.58
46476;BME280;53376;51.114;14.738;2022-07-23T06:43:30;98353.78;;;25.65;47.55
46476;BME280;53376;51.114;14.738;2022-07-23T06:46:10;98368.44;;;25.64;47.59
46476;BME280;53376;51.114;14.738;2022-07-23T06:48:51;98370.31;;;25.63;47.68
46476;BME280;53376;51.114;14.738;2022-07-23T06:51:18;98367.59;;;25.63;47.57
46476;BME280;53376;51.114;14.738;2022-07-23T06:54:01;98384.75;;;25.64;47.82
46476;BME280;53376;51.114;14.738;2022-07-23T06:56:36;98397.31;;;25.65;47.88
46476;BME280;53376;51.114;14.738;2022-07-23T07:09:47;98404.75;;;25.56;48.01
46476;BME280;53376;51.114;14.738;2022-07-23T07:12:36;98407.19;;;25.51;48.24
46476;BME280;53376;51.114;14.738;2022-07-23T07:15:10;98398.84;;;25.52;47.84
46476;BME280;53376;51.114;14.738;2022-07-23T07:17:50;98403.44;;;25.52;47.87
46476;BME280;53376;51.114;14.738;2022-07-23T07:20:17;98400.34;;;25.55;48.45
46476;BME280;53376;51.114;14.738;2022-07-23T07:22:58;98401.00;;;25.57;48.07
46476;BME280;53376;51.114;14.738;2022-07-23T07:35:41;98422.09;;;25.55;47.47
46476;BME280;53376;51.114;14.738;2022-07-23T07:38:22;98412.06;;;25.55;47.79
46476;BME280;53376;51.114;14.738;2022-07-23T07:41:02;98420.22;;;25.55;47.75
46476;BME280;53376;51.114;14.738;2022-07-23T07:43:32;98426.72;;;25.54;47.53
46476;BME280;53376;51.114;14.738;2022-07-23T07:46:12;98420.59;;;25.52;47.98
46476;BME280;53376;51.114;14.738;2022-07-23T07:48:39;98431.47;;;25.52;48.03
46476;BME280;53376;51.114;14.738;2022-07-23T07:51:21;98442.56;;;25.51;47.93
46476;BME280;53376;51.114;14.738;2022-07-23T08:04:03;98452.59;;;25.50;48.00
46476;BME280;53376;51.114;14.738;2022-07-23T08:06:45;98443.41;;;25.51;48.45
46476;BME280;53376;51.114;14.738;2022-07-23T08:09:25;98430.25;;;25.55;48.46
46476;BME280;53376;51.114;14.738;2022-07-23T08:11:52;98422.94;;;25.55;48.10
46476;BME280;53376;51.114;14.738;2022-07-23T08:14:32;98418.16;;;25.57;48.48
46476;BME280;53376;51.114;14.738;2022-07-23T08:16:59;98416.09;;;25.59;48.46
46476;BME280;53376;51.114;14.738;2022-07-23T08:30:20;98416.28;;;25.73;48.33
46476;BME280;53376;51.114;14.738;2022-07-23T08:33:03;98418.78;;;25.74;48.66
46476;BME280;53376;51.114;14.738;2022-07-23T08:35:40;98424.25;;;25.74;48.40
46476;BME280;53376;51.114;14.738;2022-07-23T08:38:23;98426.09;;;25.74;48.06
46476;BME280;53376;51.114;14.738;2022-07-23T08:40:53;98430.91;;;25.72;48.43
46476;BME280;53376;51.114;14.738;2022-07-23T08:57:30;98463.81;;;25.92;49.02
46476;BME280;53376;51.114;14.738;2022-07-23T09:00:12;98456.38;;;26.01;48.63
46476;BME280;53376;51.114;14.738;2022-07-23T09:02:53;98451.94;;;26.15;48.33
46476;BME280;53376;51.114;14.738;2022-07-23T09:05:21;98456.31;;;26.31;48.40
46476;BME280;53376;51.114;14.738;2022-07-23T09:08:08;98455.88;;;26.49;48.08
46476;BME280;53376;51.114;14.738;2022-07-23T09:10:53;98462.94;;;26.65;47.92
46476;BME280;53376;51.114;14.738;2022-07-23T09:24:08;98442.50;;;26.97;46.36
46476;BME280;53376;51.114;14.738;2022-07-23T09:26:49;98451.53;;;26.98;46.97
46476;BME280;53376;51.114;14.738;2022-07-23T09:29:18;98447.94;;;26.97;46.67
46476;BME280;53376;51.114;14.738;2022-07-23T09:32:00;98447.75;;;26.99;46.89
46476;BME280;53376;51.114;14.738;2022-07-23T09:34:36;98441.91;;;27.02;46.43
46476;BME280;53376;51.114;14.738;2022-07-23T09:37:18;98445.28;;;27.04;46.93
46476;BME280;53376;51.114;14.738;2022-07-23T09:50:11;98452.81;;;27.02;46.60
46476;BME280;53376;51.114;14.738;2022-07-23T09:52:51;98445.66;;;27.01;46.85
46476;BME280;53376;51.114;14.738;2022-07-23T09:55:33;98449.44;;;27.00;46.88
46476;BME280;53376;51.114;14.738;2022-07-23T09:58:05;98452.38;;;26.98;46.93
46476;BME280;53376;51.114;14.738;2022-07-23T10:00:47;98446.91;;;26.98;46.88
46476;BME280;53376;51.114;14.738;2022-07-23T10:03:16;98456.97;;;26.98;46.69
46476;BME280;53376;51.114;14.738;2022-07-23T10:16:48;98450.88;;;26.96;46.69
46476;BME280;53376;51.114;14.738;2022-07-23T10:19:28;98451.53;;;26.98;46.63
46476;BME280;53376;51.114;14.738;2022-07-23T10:22:00;98454.06;;;26.99;46.53
46476;BME280;53376;51.114;14.738;2022-07-23T10:24:50;98452.81;;;27.02;46.56
46476;BME280;53376;51.114;14.738;2022-07-23T10:28:03;98465.00;;;27.06;46.55
46476;BME280;53376;51.114;14.738;2022-07-23T10:31:00;98472.78;;;27.09;46.13
46476;BME280;53376;51.114;14.738;2022-07-23T10:44:09;98466.72;;;27.14;45.57
46476;BME280;53376;51.114;14.738;2022-07-23T10:46:56;98467.59;;;27.14;46.01
46476;BME280;53376;51.114;14.738;2022-07-23T10:49:38;98473.03;;;27.14;46.14
46476;BME280;53376;51.114;14.738;2022-07-23T10:52:22;98476.81;;;27.13;46.06
46476;BME280;53376;51.114;14.738;2022-07-23T10:55:39;98472.38;;;27.12;45.81
46476;BME280;53376;51.114;14.738;2022-07-23T10:58:23;98474.28;;;27.12;45.54
46476;BME280;53376;51.114;14.738;2022-07-23T11:11:47;98482.66;;;27.10;46.20
46476;BME280;53376;51.114;14.738;2022-07-23T11:17:34;98484.78;;;27.15;46.34
46476;BME280;53376;51.114;14.738;2022-07-23T11:20:21;98494.50;;;27.24;46.03
46476;BME280;53376;51.114;14.738;2022-07-23T11:22:56;98486.38;;;27.31;46.20
46476;BME280;53376;51.114;14.738;2022-07-23T11:36:13;98479.41;;;27.50;45.51
46476;BME280;53376;51.114;14.738;2022-07-23T11:38:54;98475.44;;;27.53;45.80
46476;BME280;53376;51.114;14.738;2022-07-23T11:41:22;98480.47;;;27.56;45.63
46476;BME280;53376;51.114;14.738;2022-07-23T11:44:24;98491.81;;;27.59;45.77
46476;BME280;53376;51.114;14.738;2022-07-23T11:47:00;98492.91;;;27.65;45.58
46476;BME280;53376;51.114;14.738;2022-07-23T11:49:52;98485.19;;;27.75;45.33
46476;BME280;53376;51.114;14.738;2022-07-23T11:52:29;98480.19;;;27.86;45.13
46476;BME280;53376;51.114;14.738;2022-07-23T12:05:38;98484.16;;;28.25;43.87
46476;BME280;53376;51.114;14.738;2022-07-23T12:08:21;98481.88;;;28.35;44.38
46476;BME280;53376;51.114;14.738;2022-07-23T12:10:48;98480.00;;;28.42;44.04
46476;BME280;53376;51.114;14.738;2022-07-23T12:13:29;98473.09;;;28.46;44.08
46476;BME280;53376;51.114;14.738;2022-07-23T12:15:57;98471.63;;;28.51;44.14
46476;BME280;53376;51.114;14.738;2022-07-23T12:32:23;98487.25;;;28.77;41.92
46476;BME280;53376;51.114;14.738;2022-07-23T12:35:07;98485.97;;;28.79;42.00
46476;BME280;53376;51.114;14.738;2022-07-23T12:37:50;98482.19;;;28.81;41.91
46476;BME280;53376;51.114;14.738;2022-07-23T12:40:28;98486.41;;;28.83;42.55
46476;BME280;53376;51.114;14.738;2022-07-23T12:43:17;98479.06;;;28.84;42.13
46476;BME280;53376;51.114;14.738;2022-07-23T12:56:28;98488.09;;;28.91;41.66
46476;BME280;53376;51.114;14.738;2022-07-23T12:59:11;98481.78;;;28.97;41.73
46476;BME280;53376;51.114;14.738;2022-07-23T13:01:56;98487.66;;;29.01;41.67
46476;BME280;53376;51.114;14.738;2022-07-23T13:04:31;98499.47;;;29.01;41.74
46476;BME280;53376;51.114;14.738;2022-07-23T13:07:11;98494.84;;;29.02;41.70
46476;BME280;53376;51.114;14.738;2022-07-23T13:09:38;98494.00;;;29.01;41.92
46476;BME280;53376;51.114;14.738;2022-07-23T13:12:21;98481.38;;;29.00;41.72
46476;BME280;53376;51.114;14.738;2022-07-23T13:25:03;98498.63;;;29.14;41.39
46476;BME280;53376;51.114;14.738;2022-07-23T13:27:46;98499.47;;;29.15;41.75
46476;BME280;53376;51.114;14.738;2022-07-23T13:34:07;98515.03;;;29.07;41.95
46476;BME280;53376;51.114;14.738;2022-07-23T13:36:47;98517.13;;;29.05;41.63
46476;BME280;53376;51.114;14.738;2022-07-23T13:52:55;98532.28;;;28.88;42.12
46476;BME280;53376;51.114;14.738;2022-07-23T13:55:38;98526.81;;;28.81;42.09
46476;BME280;53376;51.114;14.738;2022-07-23T13:58:07;98528.03;;;28.78;42.22
46476;BME280;53376;51.114;14.738;2022-07-23T14:00:52;98535.84;;;28.75;42.55
46476;BME280;53376;51.114;14.738;2022-07-23T14:03:27;98537.06;;;28.72;42.81
46476;BME280;53376;51.114;14.738;2022-07-23T14:16:47;98531.41;;;28.81;43.34
46476;BME280;53376;51.114;14.738;2022-07-23T14:19:30;98537.31;;;28.84;42.53
46476;BME280;53376;51.114;14.738;2022-07-23T14:21:57;98536.06;;;28.87;42.86
46476;BME280;53376;51.114;14.738;2022-07-23T14:24:39;98542.78;;;28.91;42.17
46476;BME280;53376;51.114;14.738;2022-07-23T14:27:07;98540.28;;;28.96;42.17
46476;BME280;53376;51.114;14.738;2022-07-23T14:29:49;98539.44;;;29.02;41.96
46476;BME280;53376;51.114;14.738;2022-07-23T14:32:18;98540.06;;;29.04;42.28
46476;BME280;53376;51.114;14.738;2022-07-23T14:45:29;98527.44;;;29.17;42.43
46476;BME280;53376;51.114;14.738;2022-07-23T14:48:11;98533.97;;;29.22;42.16
46476;BME280;53376;51.114;14.738;2022-07-23T14:50:38;98536.09;;;29.27;42.25
46476;BME280;53376;51.114;14.738;2022-07-23T14:53:20;98537.78;;;29.28;42.53
46476;BME280;53376;51.114;14.738;2022-07-23T14:56:14;98544.09;;;29.28;41.86
46476;BME280;53376;51.114;14.738;2022-07-23T15:12:55;98535.88;;;29.08;41.46
46476;BME280;53376;51.114;14.738;2022-07-23T15:15:22;98548.09;;;29.06;41.50
46476;BME280;53376;51.114;14.738;2022-07-23T15:18:03;98548.69;;;29.01;41.62
46476;BME280;53376;51.114;14.738;2022-07-23T15:20:32;98557.13;;;29.00;41.81
46476;BME280;53376;51.114;14.738;2022-07-23T15:23:14;98554.16;;;28.94;41.78
46476;BME280;53376;51.114;14.738;2022-07-23T15:39:22;98545.03;;;28.67;42.26
46476;BME280;53376;51.114;14.738;2022-07-23T15:42:03;98538.94;;;28.65;42.59
46476;BME280;53376;51.114;14.738;2022-07-23T15:44:45;98542.94;;;28.62;42.35
46476;BME280;53376;51.114;14.738;2022-07-23T15:47:25;98546.91;;;28.60;42.35
46476;BME280;53376;51.114;14.738;2022-07-23T15:49:52;98545.25;;;28.59;42.14
46476;BME280;53376;51.114;14.738;2022-07-23T15:52:32;98545.25;;;28.59;42.62
46476;BME280;53376;51.114;14.738;2022-07-23T16:05:16;98549.69;;;28.73;42.92
46476;BME280;53376;51.114;14.738;2022-07-23T16:07:58;98546.13;;;28.79;43.08
46476;BME280;53376;51.114;14.738;2022-07-23T16:10:38;98554.16;;;28.88;42.80
46476;BME280;53376;51.114;14.738;2022-07-23T16:13:05;98546.59;;;28.90;42.73
46476;BME280;53376;51.114;14.738;2022-07-23T16:15:45;98548.25;;;28.91;42.62
46476;BME280;53376;51.114;14.738;2022-07-23T16:18:13;98548.69;;;28.88;42.59
46476;BME280;53376;51.114;14.738;2022-07-23T16:31:24;98554.94;;;28.68;43.04
46476;BME280;53376;51.114;14.738;2022-07-23T16:34:05;98549.22;;;28.63;42.90
46476;BME280;53376;51.114;14.738;2022-07-23T16:36:32;98549.00;;;28.58;42.73
46476;BME280;53376;51.114;14.738;2022-07-23T16:39:13;98543.13;;;28.54;42.90
46476;BME280;53376;51.114;14.738;2022-07-23T16:41:41;98545.41;;;28.51;43.19
46476;BME280;53376;51.114;14.738;2022-07-23T16:44:21;98545.81;;;28.47;43.21
46476;BME280;53376;51.114;14.738;2022-07-23T16:46:50;98546.25;;;28.44;43.51
46476;BME280;53376;51.114;14.738;2022-07-23T16:59:50;98547.66;;;28.27;43.67
46476;BME280;53376;51.114;14.738;2022-07-23T17:02:35;98560.66;;;28.25;43.65
46476;BME280;53376;51.114;14.738;2022-07-23T17:05:02;98551.81;;;28.23;43.94
46476;BME280;53376;51.114;14.738;2022-07-23T17:07:43;98558.34;;;28.22;43.62
46476;BME280;53376;51.114;14.738;2022-07-23T17:10:10;98562.13;;;28.21;43.68
46476;BME280;53376;51.114;14.738;2022-07-23T17:12:51;98565.66;;;28.14;43.80
46476;BME280;53376;51.114;14.738;2022-07-23T17:25:34;98559.13;;;28.09;43.63
46476;BME280;53376;51.114;14.738;2022-07-23T17:28:16;98554.69;;;28.08;43.51
46476;BME280;53376;51.114;14.738;2022-07-23T17:30:57;98558.50;;;28.07;43.55
46476;BME280;53376;51.114;14.738;2022-07-23T17:33:24;98556.00;;;28.12;43.21
46476;BME280;53376;51.114;14.738;2022-07-23T17:36:06;98568.84;;;28.18;42.87
46476;BME280;53376;51.114;14.738;2022-07-23T17:38:41;98574.22;;;28.53;42.20
46476;BME280;53376;51.114;14.738;2022-07-23T17:51:40;98576.84;;;28.82;40.64
46476;BME280;53376;51.114;14.738;2022-07-23T17:54:28;98577.22;;;28.65;41.06
46476;BME280;53376;51.114;14.738;2022-07-23T17:57:03;98580.94;;;28.51;41.00
46476;BME280;53376;51.114;14.738;2022-07-23T17:59:43;98585.53;;;28.37;41.56
46476;BME280;53376;51.114;14.738;2022-07-23T18:02:10;98590.31;;;28.28;41.24
46476;BME280;53376;51.114;14.738;2022-07-23T18:04:50;98588.78;;;28.19;41.69
46476;BME280;53376;51.114;14.738;2022-07-23T18:07:19;98585.19;;;28.11;41.42
46476;BME280;53376;51.114;14.738;2022-07-23T18:20:09;98609.97;;;27.81;42.21
46476;BME280;53376;51.114;14.738;2022-07-23T18:22:39;98621.69;;;27.75;42.22
46476;BME280;53376;51.114;14.738;2022-07-23T18:25:21;98617.84;;;27.70;42.04
46476;BME280;53376;51.114;14.738;2022-07-23T18:27:58;98628.34;;;27.66;41.86
46476;BME280;53376;51.114;14.738;2022-07-23T18:30:38;98629.78;;;27.62;41.97
46476;BME280;53376;51.114;14.738;2022-07-23T18:33:05;98627.44;;;27.59;42.50
46476;BME280;53376;51.114;14.738;2022-07-23T18:46:18;98635.00;;;27.35;42.79
46476;BME280;53376;51.114;14.738;2022-07-23T18:48:59;98642.88;;;27.30;42.61
46476;BME280;53376;51.114;14.738;2022-07-23T18:51:28;98644.34;;;27.26;42.81
46476;BME280;53376;51.114;14.738;2022-07-23T18:54:09;98646.81;;;27.21;42.89
46476;BME280;53376;51.114;14.738;2022-07-23T18:56:36;98647.19;;;27.17;42.82
46476;BME280;53376;51.114;14.738;2022-07-23T19:13:12;98664.03;;;26.84;42.82
46476;BME280;53376;51.114;14.738;2022-07-23T19:15:55;98660.00;;;26.80;42.96
46476;BME280;53376;51.114;14.738;2022-07-23T19:18:35;98669.22;;;26.79;42.76
46476;BME280;53376;51.114;14.738;2022-07-23T19:21:03;98672.31;;;26.76;43.01
46476;BME280;53376;51.114;14.738;2022-07-23T19:23:43;98671.00;;;26.72;43.21
46476;BME280;53376;51.114;14.738;2022-07-23T19:26:10;98670.53;;;26.68;43.16
46476;BME280;53376;51.114;14.738;2022-07-23T19:39:21;98680.78;;;26.51;42.72
46476;BME280;53376;51.114;14.738;2022-07-23T19:42:02;98679.47;;;26.47;42.64
46476;BME280;53376;51.114;14.738;2022-07-23T19:44:30;98676.09;;;26.45;42.64
46476;BME280;53376;51.114;14.738;2022-07-23T19:47:10;98675.41;;;26.43;42.96
46476;BME280;53376;51.114;14.738;2022-07-23T19:49:37;98682.97;;;26.41;42.94
46476;BME280;53376;51.114;14.738;2022-07-23T19:52:17;98676.84;;;26.39;43.05
46476;BME280;53376;51.114;14.738;2022-07-23T20:05:01;98675.06;;;26.31;42.31
46476;BME280;53376;51.114;14.738;2022-07-23T20:07:41;98686.13;;;26.30;42.84
46476;BME280;53376;51.114;14.738;2022-07-23T20:10:23;98680.03;;;26.28;42.54
46476;BME280;53376;51.114;14.738;2022-07-23T20:12:51;98690.06;;;26.27;42.79
46476;BME280;53376;51.114;14.738;2022-07-23T20:15:31;98687.53;;;26.26;42.27
46476;BME280;53376;51.114;14.738;2022-07-23T20:17:58;98686.25;;;26.21;42.60
46476;BME280;53376;51.114;14.738;2022-07-23T20:31:15;98684.16;;;26.09;42.63
46476;BME280;53376;51.114;14.738;2022-07-23T20:33:56;98693.53;;;26.06;42.45
46476;BME280;53376;51.114;14.738;2022-07-23T20:36:23;98694.53;;;26.05;42.20
46476;BME280;53376;51.114;14.738;2022-07-23T20:39:06;98694.25;;;26.00;42.46
46476;BME280;53376;51.114;14.738;2022-07-23T20:41:42;98702.25;;;26.01;42.68
46476;BME280;53376;51.114;14.738;2022-07-23T20:44:22;98700.72;;;25.99;42.53
46476;BME280;53376;51.114;14.738;2022-07-23T20:46:51;98708.44;;;25.95;42.49
46476;BME280;53376;51.114;14.738;2022-07-23T21:00:05;98709.06;;;25.82;42.60
46476;BME280;53376;51.114;14.738;2022-07-23T21:02:48;98710.06;;;25.81;42.62
46476;BME280;53376;51.114;14.738;2022-07-23T21:05:15;98711.09;;;25.80;42.31
46476;BME280;53376;51.114;14.738;2022-07-23T21:07:56;98713.19;;;25.78;42.38
46476;BME280;53376;51.114;14.738;2022-07-23T21:10:23;98720.66;;;25.76;42.41
46476;BME280;53376;51.114;14.738;2022-07-23T21:13:09;98729.75;;;25.68;42.59
46476;BME280;53376;51.114;14.738;2022-07-23T21:26:06;98735.34;;;25.52;43.21
46476;BME280;53376;51.114;14.738;2022-07-23T21:29:04;98733.78;;;25.49;43.30
46476;BME280;53376;51.114;14.738;2022-07-23T21:31:44;98732.66;;;25.43;43.25
46476;BME280;53376;51.114;14.738;2022-07-23T21:34:11;98733.88;;;25.41;43.41
46476;BME280;53376;51.114;14.738;2022-07-23T21:36:52;98735.25;;;25.37;42.94
46476;BME280;53376;51.114;14.738;2022-07-23T21:53:01;98745.19;;;25.21;43.69
46476;BME280;53376;51.114;14.738;2022-07-23T21:55:41;98741.78;;;25.19;43.81
46476;BME280;53376;51.114;14.738;2022-07-23T21:58:08;98752.16;;;25.16;43.88
46476;BME280;53376;51.114;14.738;2022-07-23T22:00:48;98749.63;;;25.14;43.63
46476;BME280;53376;51.114;14.738;2022-07-23T22:03:17;98751.03;;;25.10;43.86
46476;BME280;53376;51.114;14.738;2022-07-23T22:05:58;98750.00;;;25.11;43.84
46476;BME280;53376;51.114;14.738;2022-07-23T22:08:27;98752.72;;;25.11;43.93
46476;BME280;53376;51.114;14.738;2022-07-23T22:18:14;98749.34;;;25.01;44.24
46476;BME280;53376;51.114;14.738;2022-07-23T22:20:54;98761.44;;;24.98;44.35
46476;BME280;53376;51.114;14.738;2022-07-23T22:23:55;98753.47;;;24.97;44.34
46476;BME280;53376;51.114;14.738;2022-07-23T22:26:22;98754.69;;;24.94;44.30
46476;BME280;53376;51.114;14.738;2022-07-23T22:29:03;98755.50;;;24.94;43.84
46476;BME280;53376;51.114;14.738;2022-07-23T22:31:31;98752.84;;;24.86;44.29
46476;BME280;53376;51.114;14.738;2022-07-23T22:45:00;98763.56;;;24.79;44.24
46476;BME280;53376;51.114;14.738;2022-07-23T22:47:40;98761.34;;;24.75;44.06
46476;BME280;53376;51.114;14.738;2022-07-23T22:50:09;98766.78;;;24.75;44.11
46476;BME280;53376;51.114;14.738;2022-07-23T22:52:49;98765.97;;;24.74;44.26
46476;BME280;53376;51.114;14.738;2022-07-23T22:55:16;98765.28;;;24.72;44.16
46476;BME280;53376;51.114;14.738;2022-07-23T22:58:02;98766.28;;;24.71;44.42
46476;BME280;53376;51.114;14.738;2022-07-23T23:14:12;98767.19;;;24.55;44.72
46476;BME280;53376;51.114;14.738;2022-07-23T23:16:52;98767.72;;;24.51;44.71
46476;BME280;53376;51.114;14.738;2022-07-23T23:19:19;98765.81;;;24.51;44.29
46476;BME280;53376;51.114;14.738;2022-07-23T23:22:03;98777.72;;;24.50;44.54
46476;BME280;53376;51.114;14.738;2022-07-23T23:24:30;98782.47;;;24.48;44.23
46476;BME280;53376;51.114;14.738;2022-07-23T23:27:11;98781.81;;;24.46;44.42
46476;BME280;53376;51.114;14.738;2022-07-23T23:39:54;98788.28;;;24.37;43.96